createdAt,value
2023-03-19T00:00:46.678Z,8.90
2023-03-19T00:03:13.758Z,9.50
2023-03-19T00:05:41.749Z,8.83
2023-03-19T00:08:08.853Z,9.20
2023-03-19T00:10:39.742Z,9.37
2023-03-19T00:13:07.070Z,9.40
2023-03-19T00:15:34.522Z,8.50
2023-03-19T00:18:02.109Z,8.60
2023-03-19T00:20:29.144Z,8.57
2023-03-19T00:22:56.544Z,9.20
2023-03-19T00:25:24.132Z,9.07
2023-03-19T00:27:52.783Z,10.33
2023-03-19T00:30:20.171Z,9.97
2023-03-19T00:32:48.190Z,9.07
2023-03-19T00:35:15.936Z,9.53
2023-03-19T00:37:43.086Z,9.30
2023-03-19T00:40:11.661Z,8.70
2023-03-19T00:42:38.719Z,8.60
2023-03-19T00:45:06.958Z,8.77
2023-03-19T00:47:34.238Z,8.80
2023-03-19T00:50:01.989Z,9.23
2023-03-19T00:52:29.087Z,9.27
2023-03-19T00:54:56.175Z,9.33
2023-03-19T00:57:23.569Z,9.30
2023-03-19T00:59:50.933Z,8.73
2023-03-19T01:02:18.066Z,9.00
2023-03-19T01:04:47.459Z,8.93
2023-03-19T01:07:14.706Z,8.37
2023-03-19T01:09:41.991Z,8.87
2023-03-19T01:12:09.458Z,8.63
2023-03-19T01:14:36.501Z,9.77
2023-03-19T01:17:03.567Z,10.13
2023-03-19T01:19:30.900Z,11.37
2023-03-19T01:21:58.029Z,10.00
2023-03-19T01:24:25.387Z,9.20
2023-03-19T01:26:52.414Z,11.70
2023-03-19T01:29:19.496Z,9.87
2023-03-19T01:31:46.597Z,9.07
2023-03-19T01:34:13.735Z,8.67
2023-03-19T01:36:41.080Z,8.40
2023-03-19T01:39:08.202Z,7.90
2023-03-19T01:41:35.336Z,8.37
2023-03-19T01:44:02.356Z,8.37
2023-03-19T01:46:34.766Z,8.60
2023-03-19T01:49:07.625Z,8.93
2023-03-19T01:51:41.464Z,8.63
2023-03-19T01:54:14.612Z,8.83
2023-03-19T01:56:44.984Z,9.23
2023-03-19T01:59:26.848Z,9.00
2023-03-19T02:02:09.394Z,8.83
2023-03-19T02:04:40.810Z,8.03
2023-03-19T02:07:09.573Z,8.70
2023-03-19T02:09:37.211Z,8.67
2023-03-19T02:12:05.465Z,8.60
2023-03-19T02:14:32.552Z,7.90
2023-03-19T02:16:59.884Z,7.90
2023-03-19T02:19:44.622Z,7.67
2023-03-19T02:22:13.779Z,8.20
2023-03-19T02:25:17.150Z,8.50
2023-03-19T02:27:44.531Z,8.87
2023-03-19T02:30:37.791Z,8.13
2023-03-19T02:33:05.276Z,9.00
2023-03-19T02:35:35.202Z,8.93
2023-03-19T02:38:05.164Z,16.03
2023-03-19T02:40:45.253Z,8.60
2023-03-19T02:43:12.386Z,9.03
2023-03-19T02:45:40.482Z,8.07
2023-03-19T02:48:07.540Z,8.57
2023-03-19T02:50:34.830Z,9.10
2023-03-19T02:53:02.074Z,8.63
2023-03-19T02:55:29.155Z,9.07
2023-03-19T02:57:56.323Z,8.67
2023-03-19T03:00:23.449Z,8.37
2023-03-19T03:02:50.778Z,9.17
2023-03-19T03:05:18.448Z,8.17
2023-03-19T03:07:45.522Z,8.37
2023-03-19T03:10:12.931Z,8.83
2023-03-19T03:12:40.085Z,9.20
2023-03-19T03:15:08.888Z,9.17
2023-03-19T03:17:40.794Z,8.83
2023-03-19T03:20:11.423Z,8.80
2023-03-19T03:22:39.913Z,8.67
2023-03-19T03:25:07.584Z,8.50
2023-03-19T03:27:34.823Z,8.23
2023-03-19T03:30:01.933Z,8.80
2023-03-19T03:32:29.050Z,8.93
2023-03-19T03:34:56.098Z,9.17
2023-03-19T03:37:23.160Z,9.53
2023-03-19T03:39:50.930Z,10.07
2023-03-19T03:42:18.480Z,9.40
2023-03-19T03:44:45.583Z,9.77
2023-03-19T03:47:13.530Z,8.90
2023-03-19T03:49:40.583Z,8.50
2023-03-19T03:52:09.005Z,10.23
2023-03-19T03:54:36.137Z,9.77
2023-03-19T03:57:03.793Z,10.37
2023-03-19T03:59:31.074Z,8.50
2023-03-19T04:01:58.328Z,9.37
2023-03-19T04:04:25.475Z,9.10
2023-03-19T04:06:52.568Z,9.67
2023-03-19T04:09:19.692Z,9.47
2023-03-19T04:11:47.130Z,9.40
2023-03-19T04:14:14.390Z,9.97
2023-03-19T04:16:42.073Z,8.23
2023-03-19T04:19:09.144Z,10.13
2023-03-19T04:21:36.208Z,9.87
2023-03-19T04:24:03.616Z,8.77
2023-03-19T04:26:30.907Z,9.17
2023-03-19T04:28:58.804Z,9.13
2023-03-19T04:31:25.932Z,9.67
2023-03-19T04:33:53.398Z,9.60
2023-03-19T04:36:20.959Z,8.77
2023-03-19T04:38:48.022Z,9.50
2023-03-19T04:41:16.246Z,10.20
2023-03-19T04:43:43.318Z,9.53
2023-03-19T04:46:10.477Z,8.67
2023-03-19T04:48:37.742Z,9.97
2023-03-19T04:51:08.445Z,10.40
2023-03-19T04:53:38.212Z,9.10
2023-03-19T04:56:07.052Z,10.97
2023-03-19T04:58:34.400Z,9.80
2023-03-19T05:01:01.582Z,9.83
2023-03-19T05:03:28.725Z,9.23
2023-03-19T05:05:55.899Z,11.93
2023-03-19T05:08:23.031Z,10.97
2023-03-19T05:10:50.138Z,10.60
2023-03-19T05:13:18.068Z,9.77
2023-03-19T05:15:47.419Z,10.97
2023-03-19T05:18:14.695Z,9.80
2023-03-19T05:20:42.600Z,10.60
2023-03-19T05:23:10.464Z,9.63
2023-03-19T05:25:37.610Z,10.00
2023-03-19T05:28:05.557Z,10.97
2023-03-19T05:30:33.235Z,9.97
2023-03-19T05:33:02.141Z,11.17
2023-03-19T05:35:30.631Z,11.37
2023-03-19T05:37:57.883Z,11.70
2023-03-19T05:40:26.474Z,11.53
2023-03-19T05:42:53.628Z,12.87
2023-03-19T05:45:21.414Z,10.70
2023-03-19T05:47:50.038Z,13.07
2023-03-19T05:50:19.356Z,14.13
2023-03-19T05:52:46.432Z,15.20
2023-03-19T05:55:13.731Z,12.43
2023-03-19T05:57:41.168Z,13.80
2023-03-19T06:00:11.129Z,14.90
2023-03-19T06:02:38.415Z,13.60
2023-03-19T06:05:07.124Z,15.63
2023-03-19T06:07:34.194Z,14.20
2023-03-19T06:10:01.403Z,14.83
2023-03-19T06:12:28.785Z,15.93
2023-03-19T06:14:56.635Z,15.43
2023-03-19T06:17:23.769Z,15.97
2023-03-19T06:19:50.835Z,14.57
2023-03-19T06:22:17.943Z,15.20
2023-03-19T06:24:44.988Z,15.13
2023-03-19T06:27:12.270Z,13.77
2023-03-19T06:29:39.360Z,12.97
2023-03-19T06:32:06.626Z,12.57
2023-03-19T06:34:33.735Z,12.50
2023-03-19T06:37:01.118Z,11.33
2023-03-19T06:39:28.214Z,9.97
2023-03-19T06:41:55.781Z,10.50
2023-03-19T06:44:22.910Z,10.73
2023-03-19T06:46:49.977Z,8.57
2023-03-19T06:49:17.217Z,9.67
2023-03-19T06:51:44.398Z,9.50
2023-03-19T06:54:11.472Z,8.90
2023-03-19T06:56:38.561Z,8.83
2023-03-19T06:59:05.622Z,8.80
2023-03-19T07:01:32.792Z,9.97
2023-03-19T07:03:59.905Z,9.43
2023-03-19T07:06:26.970Z,9.07
2023-03-19T07:08:54.017Z,9.40
2023-03-19T07:11:21.133Z,10.33
2023-03-19T07:13:50.354Z,10.70
2023-03-19T07:16:17.431Z,10.00
2023-03-19T07:18:44.496Z,9.83
2023-03-19T07:21:11.536Z,8.77
2023-03-19T07:23:38.587Z,10.00
2023-03-19T07:26:05.792Z,10.47
2023-03-19T07:28:32.916Z,9.20
2023-03-19T07:31:00.142Z,10.50
2023-03-19T07:33:27.225Z,11.50
2023-03-19T07:35:54.400Z,10.70
2023-03-19T07:38:22.626Z,14.20
2023-03-19T07:41:01.480Z,13.53
2023-03-19T07:43:30.854Z,13.80
2023-03-19T07:45:58.772Z,13.00
2023-03-19T07:48:26.070Z,14.70
2023-03-19T07:50:54.235Z,14.47
2023-03-19T07:53:21.456Z,16.27
2023-03-19T07:55:49.036Z,13.30
2023-03-19T07:58:16.979Z,12.23
2023-03-19T08:00:45.040Z,13.47
2023-03-19T08:03:12.418Z,11.67
2023-03-19T08:05:39.800Z,12.70
2023-03-19T08:08:07.206Z,13.07
2023-03-19T08:10:36.491Z,12.30
2023-03-19T08:13:05.298Z,12.40
2023-03-19T08:15:32.911Z,12.23
2023-03-19T08:18:04.858Z,13.67
2023-03-19T08:20:32.883Z,13.13
2023-03-19T08:23:00.277Z,14.23
2023-03-19T08:25:32.323Z,12.07
2023-03-19T08:28:01.206Z,12.30
2023-03-19T08:30:28.933Z,11.80
2023-03-19T08:32:56.143Z,12.43
2023-03-19T08:35:23.929Z,11.77
2023-03-19T08:37:51.002Z,10.10
2023-03-19T08:40:18.120Z,11.60
2023-03-19T08:42:45.572Z,14.63
2023-03-19T08:45:15.653Z,15.83
2023-03-19T08:47:43.994Z,12.67
2023-03-19T08:50:11.985Z,15.17
2023-03-19T08:52:39.273Z,14.33
2023-03-19T08:55:08.390Z,14.67
2023-03-19T08:57:36.390Z,19.37
2023-03-19T09:00:06.580Z,18.27
2023-03-19T09:02:33.829Z,18.07
2023-03-19T09:05:00.954Z,18.70
2023-03-19T09:07:28.040Z,17.93
2023-03-19T09:09:55.470Z,18.17
2023-03-19T09:12:22.613Z,19.87
2023-03-19T09:14:49.755Z,20.17
2023-03-19T09:17:19.297Z,19.90
2023-03-19T09:19:46.380Z,19.10
2023-03-19T09:22:15.523Z,19.47
2023-03-19T09:24:42.865Z,17.50
2023-03-19T09:27:09.930Z,19.33
2023-03-19T09:29:37.031Z,16.47
2023-03-19T09:32:04.347Z,18.40
2023-03-19T09:34:31.571Z,16.97
2023-03-19T09:36:58.681Z,17.43
2023-03-19T09:39:26.929Z,16.43
2023-03-19T09:42:37.909Z,16.93
2023-03-19T09:45:12.347Z,17.97
2023-03-19T09:47:43.357Z,19.17
2023-03-19T09:50:26.127Z,15.93
2023-03-19T09:53:19.151Z,18.60
2023-03-19T09:55:52.492Z,15.73
2023-03-19T09:58:30.709Z,18.77
2023-03-19T10:01:00.953Z,18.30
2023-03-19T10:03:27.814Z,15.23
2023-03-19T10:06:09.483Z,15.17
2023-03-19T10:09:33.526Z,14.20
2023-03-19T10:12:48.425Z,13.87
2023-03-19T10:15:32.577Z,12.23
2023-03-19T10:18:24.372Z,12.43
2023-03-19T10:21:35.302Z,11.63
2023-03-19T10:24:27.821Z,12.20
2023-03-19T10:27:10.808Z,10.90
2023-03-19T10:29:39.006Z,10.47
2023-03-19T10:32:41.282Z,10.33
2023-03-19T10:35:27.673Z,10.03
2023-03-19T10:37:55.713Z,10.53
2023-03-19T10:40:51.456Z,10.30
2023-03-19T10:43:25.489Z,11.27
2023-03-19T10:45:54.082Z,10.53
2023-03-19T10:48:28.333Z,9.30
2023-03-19T10:51:05.543Z,8.97
2023-03-19T10:53:38.831Z,9.43
2023-03-19T10:56:23.187Z,8.47
2023-03-19T10:59:30.220Z,8.17
2023-03-19T11:02:27.861Z,7.20
2023-03-19T11:05:14.729Z,7.30
2023-03-19T11:07:41.899Z,7.57
2023-03-19T11:10:18.763Z,7.00
2023-03-19T11:13:15.625Z,7.53
2023-03-19T11:15:42.778Z,8.10
2023-03-19T11:18:36.829Z,8.33
2023-03-19T11:21:23.485Z,7.10
2023-03-19T11:24:03.342Z,7.33
2023-03-19T11:26:31.280Z,7.30
2023-03-19T11:29:05.172Z,8.30
2023-03-19T11:31:54.364Z,7.63
2023-03-19T11:34:58.974Z,6.70
2023-03-19T11:38:01.043Z,7.07
2023-03-19T11:41:09.064Z,7.20
2023-03-19T11:44:19.121Z,6.87
2023-03-19T11:47:38.939Z,6.37
2023-03-19T11:50:22.146Z,6.47
2023-03-19T11:53:05.175Z,6.73
2023-03-19T11:55:43.552Z,6.53
2023-03-19T11:59:09.690Z,6.07
2023-03-19T12:02:35.210Z,6.60
2023-03-19T12:05:51.514Z,6.53
2023-03-19T12:08:45.788Z,6.33
2023-03-19T12:11:28.181Z,6.87
2023-03-19T12:14:30.135Z,6.50
2023-03-19T12:17:48.771Z,7.20
2023-03-19T12:21:03.479Z,6.37
2023-03-19T12:24:23.115Z,6.87
2023-03-19T12:27:10.318Z,6.40
2023-03-19T12:29:52.258Z,6.83
2023-03-19T12:32:38.310Z,6.40
2023-03-19T12:35:26.413Z,6.63
2023-03-19T12:38:06.017Z,6.70
2023-03-19T12:40:43.607Z,6.43
2023-03-19T12:43:55.267Z,6.57
2023-03-19T12:46:33.196Z,6.67
2023-03-19T12:49:37.441Z,7.00
2023-03-19T12:52:39.568Z,6.93
2023-03-19T12:55:36.336Z,6.03
2023-03-19T12:58:59.925Z,7.30
2023-03-19T13:01:38.925Z,6.23
2023-03-19T13:04:33.222Z,6.13
2023-03-19T13:07:59.962Z,8.03
2023-03-19T13:10:31.385Z,7.00
2023-03-19T13:13:01.275Z,6.13
2023-03-19T13:15:47.786Z,6.53
2023-03-19T13:18:23.840Z,5.87
2023-03-19T13:21:21.565Z,6.80
2023-03-19T13:24:02.278Z,6.03
2023-03-19T13:26:29.821Z,6.63
2023-03-19T13:29:13.798Z,6.40
2023-03-19T13:31:41.679Z,6.47
2023-03-19T13:34:28.667Z,6.40
2023-03-19T13:37:10.582Z,6.45
2023-03-19T13:39:37.992Z,6.40
2023-03-19T13:42:42.487Z,5.78
2023-03-19T13:45:38.358Z,6.15
2023-03-19T13:48:28.567Z,5.75
2023-03-19T13:51:29.656Z,5.68
2023-03-19T13:54:13.574Z,6.50
2023-03-19T13:57:01.016Z,5.47
2023-03-19T13:59:43.879Z,5.70
2023-03-19T14:02:24.060Z,6.80
2023-03-19T14:05:04.033Z,6.05
2023-03-19T14:07:41.773Z,6.47
2023-03-19T14:10:57.212Z,6.30
2023-03-19T14:13:38.208Z,6.05
2023-03-19T14:16:26.178Z,6.60
2023-03-19T14:19:00.756Z,6.20
2023-03-19T14:22:02.675Z,5.22
2023-03-19T14:24:55.855Z,5.80
2023-03-19T14:27:32.869Z,5.53
2023-03-19T14:30:11.101Z,5.63
2023-03-19T14:32:42.160Z,5.63
2023-03-19T14:35:20.510Z,5.47
2023-03-19T14:37:52.426Z,5.40
2023-03-19T14:40:50.546Z,5.68
2023-03-19T14:44:22.798Z,5.80
2023-03-19T14:47:22.636Z,6.40
2023-03-19T14:50:57.198Z,5.97
2023-03-19T14:53:58.632Z,6.60
2023-03-19T14:56:36.089Z,6.15
2023-03-19T14:59:06.004Z,5.78
2023-03-19T15:01:41.097Z,5.47
2023-03-19T15:04:15.813Z,5.45
2023-03-19T15:06:58.242Z,5.40
2023-03-19T15:09:33.527Z,5.55
2023-03-19T15:12:46.021Z,5.93
2023-03-19T15:15:50.219Z,5.40
2023-03-19T15:18:20.599Z,5.38
2023-03-19T15:20:55.496Z,5.85
2023-03-19T15:23:29.386Z,5.40
2023-03-19T15:26:03.901Z,9.35
2023-03-19T15:28:54.175Z,7.75
2023-03-19T15:31:37.521Z,6.82
2023-03-19T15:34:31.221Z,6.50
2023-03-19T15:37:15.488Z,6.70
2023-03-19T15:39:54.349Z,6.15
2023-03-19T15:42:26.193Z,5.55
2023-03-19T15:45:12.173Z,6.25
2023-03-19T15:48:08.406Z,8.25
2023-03-19T15:50:42.179Z,6.15
2023-03-19T15:53:24.415Z,5.78
2023-03-19T15:55:55.670Z,5.72
2023-03-19T15:58:32.465Z,6.57
2023-03-19T16:01:01.145Z,6.55
2023-03-19T16:03:50.996Z,6.18
2023-03-19T16:06:29.346Z,6.40
2023-03-19T16:09:32.802Z,6.40
2023-03-19T16:12:01.235Z,6.55
2023-03-19T16:14:39.680Z,6.50
2023-03-19T16:17:17.191Z,6.85
2023-03-19T16:19:50.361Z,6.65
2023-03-19T16:22:23.722Z,6.22
2023-03-19T16:24:53.815Z,6.63
2023-03-19T16:27:34.500Z,6.85
2023-03-19T16:30:02.446Z,6.85
2023-03-19T16:32:32.414Z,6.70
2023-03-19T16:35:20.544Z,7.00
2023-03-19T16:37:55.007Z,6.43
2023-03-19T16:40:21.851Z,6.85
2023-03-19T16:42:56.180Z,6.60
2023-03-19T16:45:31.060Z,7.13
2023-03-19T16:48:05.219Z,7.00
2023-03-19T16:50:43.107Z,6.55
2023-03-19T16:53:24.284Z,7.05
2023-03-19T16:55:54.334Z,7.60
2023-03-19T16:58:36.427Z,7.53
2023-03-19T17:01:22.234Z,7.37
2023-03-19T17:03:50.317Z,7.07
2023-03-19T17:06:19.135Z,8.10
2023-03-19T17:08:46.248Z,7.37
2023-03-19T17:11:31.097Z,7.50
2023-03-19T17:14:00.181Z,9.03
2023-03-19T17:16:28.369Z,7.87
2023-03-19T17:18:56.491Z,7.83
2023-03-19T17:21:33.226Z,8.60
2023-03-19T17:24:30.169Z,8.60
2023-03-19T17:27:01.705Z,8.70
2023-03-19T17:29:30.439Z,8.97
2023-03-19T17:32:01.815Z,9.20
2023-03-19T17:34:32.002Z,9.33
2023-03-19T17:37:04.581Z,9.43
2023-03-19T17:39:32.737Z,9.40
2023-03-19T17:41:59.986Z,9.70
2023-03-19T17:44:27.892Z,9.50
2023-03-19T17:46:55.794Z,9.03
2023-03-19T17:49:33.779Z,9.43
2023-03-19T17:52:01.452Z,9.73
2023-03-19T17:54:28.837Z,10.63
2023-03-19T17:56:56.129Z,9.50
2023-03-19T17:59:23.799Z,9.37
2023-03-19T18:01:52.000Z,9.63
2023-03-19T18:04:22.389Z,10.13
2023-03-19T18:06:55.914Z,10.30
2023-03-19T18:09:28.469Z,10.17
2023-03-19T18:11:55.977Z,9.97
2023-03-19T18:14:23.008Z,10.40
2023-03-19T18:16:50.605Z,10.43
2023-03-19T18:19:37.709Z,10.77
2023-03-19T18:22:17.734Z,10.23
2023-03-19T18:24:46.059Z,9.43
2023-03-19T18:27:13.479Z,8.27
2023-03-19T18:29:40.779Z,9.83
2023-03-19T18:32:17.644Z,8.97
2023-03-19T18:34:44.860Z,11.03
2023-03-19T18:37:18.240Z,9.80
2023-03-19T18:39:45.539Z,10.07
2023-03-19T18:42:14.187Z,10.00
2023-03-19T18:44:41.349Z,11.80
2023-03-19T18:47:15.781Z,12.50
2023-03-19T18:49:43.627Z,11.37
2023-03-19T18:52:17.852Z,11.37
2023-03-19T18:54:46.586Z,10.80
2023-03-19T18:57:15.643Z,9.73
2023-03-19T18:59:43.078Z,10.57
2023-03-19T19:02:35.012Z,10.83
2023-03-19T19:05:02.543Z,13.63
2023-03-19T19:07:29.724Z,12.70
2023-03-19T19:09:56.868Z,11.70
2023-03-19T19:12:25.986Z,11.40
2023-03-19T19:14:53.105Z,10.40
2023-03-19T19:17:24.472Z,11.90
2023-03-19T19:19:51.562Z,12.83
2023-03-19T19:22:19.885Z,12.40
2023-03-19T19:24:47.656Z,14.80
2023-03-19T19:27:23.662Z,12.27
2023-03-19T19:29:51.271Z,12.23
2023-03-19T19:32:29.356Z,12.13
2023-03-19T19:34:57.038Z,10.20
2023-03-19T19:37:24.317Z,11.10
2023-03-19T19:39:51.864Z,11.93
2023-03-19T19:42:22.587Z,11.70
2023-03-19T19:45:03.233Z,11.93
2023-03-19T19:47:30.435Z,11.73
2023-03-19T19:49:57.985Z,11.37
2023-03-19T19:52:25.078Z,11.77
2023-03-19T19:54:52.141Z,13.63
2023-03-19T19:57:26.419Z,13.37
2023-03-19T19:59:55.535Z,14.33
2023-03-19T20:02:29.105Z,14.67
2023-03-19T20:04:57.987Z,13.53
2023-03-19T20:07:25.122Z,12.90
2023-03-19T20:09:52.254Z,13.53
2023-03-19T20:12:30.854Z,12.37
2023-03-19T20:15:00.543Z,13.03
2023-03-19T20:17:27.930Z,11.67
2023-03-19T20:19:55.211Z,12.67
2023-03-19T20:22:22.324Z,11.03
2023-03-19T20:24:51.382Z,12.53
2023-03-19T20:27:28.662Z,12.20
2023-03-19T20:29:56.082Z,11.33
2023-03-19T20:32:34.280Z,11.07
2023-03-19T20:35:01.508Z,11.00
2023-03-19T20:37:29.423Z,9.93
2023-03-19T20:39:56.738Z,10.40
2023-03-19T20:42:24.641Z,10.63
2023-03-19T20:44:58.430Z,10.47
2023-03-19T20:47:25.925Z,9.07
2023-03-19T20:49:53.366Z,6.83
2023-03-19T20:52:21.319Z,8.20
2023-03-19T20:54:49.334Z,6.07
2023-03-19T20:57:29.142Z,7.10
2023-03-19T20:59:57.193Z,6.90
2023-03-19T21:02:26.218Z,7.03
2023-03-19T21:04:53.358Z,6.03
2023-03-19T21:07:34.459Z,6.77
2023-03-19T21:10:15.664Z,5.90
2023-03-19T21:12:42.742Z,6.07
2023-03-19T21:15:16.661Z,5.90
2023-03-19T21:17:44.295Z,4.50
2023-03-19T21:20:30.435Z,4.20
2023-03-19T21:23:17.458Z,4.27
2023-03-19T21:25:46.186Z,3.93
2023-03-19T21:28:34.118Z,3.67
2023-03-19T21:31:02.157Z,4.17
2023-03-19T21:33:33.142Z,4.20
2023-03-19T21:36:05.700Z,4.17
2023-03-19T21:38:33.018Z,3.60
2023-03-19T21:41:05.219Z,4.37
2023-03-19T21:43:43.781Z,4.60
2023-03-19T21:46:24.497Z,4.10
2023-03-19T21:48:54.471Z,4.80
2023-03-19T21:51:22.509Z,3.40
2023-03-19T21:53:49.731Z,3.80
2023-03-19T21:56:33.314Z,4.00
2023-03-19T21:59:04.116Z,4.03
2023-03-19T22:01:31.244Z,3.63
2023-03-19T22:03:58.550Z,4.00
2023-03-19T22:06:26.052Z,3.37
2023-03-19T22:08:54.057Z,4.37
2023-03-19T22:11:32.496Z,4.10
2023-03-19T22:14:17.783Z,4.40
2023-03-19T22:16:47.467Z,4.10
2023-03-19T22:19:17.770Z,4.47
2023-03-19T22:21:46.258Z,5.03
2023-03-19T22:24:13.500Z,4.43
2023-03-19T22:26:46.751Z,4.90
2023-03-19T22:29:23.487Z,4.80
2023-03-19T22:31:53.069Z,4.43
2023-03-19T22:34:25.511Z,5.10
2023-03-19T22:36:52.650Z,4.53
2023-03-19T22:39:19.914Z,4.83
2023-03-19T22:41:48.786Z,4.60
2023-03-19T22:44:31.233Z,4.93
2023-03-19T22:47:01.652Z,5.40
2023-03-19T22:49:32.381Z,5.40
2023-03-19T22:51:59.780Z,5.33
2023-03-19T22:54:26.825Z,4.83
2023-03-19T22:56:53.944Z,5.07
2023-03-19T22:59:21.512Z,4.97
2023-03-19T23:01:49.144Z,5.90
2023-03-19T23:04:25.100Z,5.53
2023-03-19T23:06:55.443Z,4.70
2023-03-19T23:09:35.841Z,5.03
2023-03-19T23:12:03.991Z,4.87
2023-03-19T23:14:33.561Z,5.23
2023-03-19T23:17:10.203Z,5.40
2023-03-19T23:19:38.360Z,5.50
2023-03-19T23:22:11.376Z,5.40
2023-03-19T23:24:38.666Z,6.30
2023-03-19T23:27:05.864Z,6.67
2023-03-19T23:29:40.937Z,6.10
2023-03-19T23:32:11.482Z,5.37
2023-03-19T23:34:54.028Z,5.23
2023-03-19T23:37:24.254Z,5.83
2023-03-19T23:39:51.787Z,6.20
2023-03-19T23:42:28.756Z,6.43
2023-03-19T23:45:01.919Z,6.00
2023-03-19T23:47:30.686Z,5.77
2023-03-19T23:49:58.059Z,6.13
2023-03-19T23:52:25.346Z,6.10
2023-03-19T23:54:52.509Z,5.60
2023-03-19T23:57:26.349Z,5.63
2023-03-19T23:59:54.141Z,5.53
